Time;durP1;ratioP1;P1;durP2;ratioP2;P2;SDS_P1;SDS_P2;PMS_P1;PMS_P2;Temp;Humidity;BMP_temperature;BMP_pressure;BME280_temperature;BME280_humidity;BME280_pressure;Samples;Min_cycle;Max_cycle;Signal;HPM_P1;HPM_P2
2021/03/27 00:01:59;;;;;;;;;;;;;;;14.20;46.37;101028.25;4927232;28;96760;-86
2021/03/27 00:04:34;;;;;;;;;;;;;;;14.05;46.81;101031.59;4927023;28;96680;-85
2021/03/27 00:07:07;;;;;;;;;;;;;;;14.37;45.99;101019.53;4934153;28;99772;-86
2021/03/27 00:09:43;;;;;;;;;;;;;;;14.19;46.30;101017.69;4941224;28;97739;-84
2021/03/27 00:12:12;;;;;;;;;;;;;;;14.26;46.31;101019.13;4938317;28;95915;-85
2021/03/27 00:14:40;;;;;;;;;;;;;;;13.78;47.30;101008.97;4937449;28;96649;-86
2021/03/27 00:17:09;;;;;;;;;;;;;;;14.05;46.74;101010.34;4926386;28;98260;-86
2021/03/27 00:19:38;;;;;;;;;;;;;;;14.02;46.79;101015.81;4941881;28;97779;-83
2021/03/27 00:22:29;;;;;;;;;;;;;;;14.12;46.35;101002.94;4942003;28;96012;-80
2021/03/27 00:25:01;;;;;;;;;;;;;;;14.26;46.10;100996.06;4956218;28;96211;-78
2021/03/27 00:27:29;;;;;;;;;;;;;;;14.05;46.53;100996.19;5105199;22;100276;-83
2021/03/27 00:29:57;;;;;;;;;;;;;;;13.87;47.01;100998.75;4946259;28;97451;-86
2021/03/27 00:32:25;;;;;;;;;;;;;;;14.02;46.79;100991.03;4961603;28;95808;-86
2021/03/27 00:34:54;;;;;;;;;;;;;;;13.93;47.01;100990.50;4959122;28;96122;-86
2021/03/27 00:37:24;;;;;;;;;;;;;;;13.95;46.94;100990.47;4947573;28;96599;-86
2021/03/27 00:39:55;;;;;;;;;;;;;;;14.05;46.53;100982.91;4939971;28;97781;-86
2021/03/27 00:42:23;;;;;;;;;;;;;;;13.97;46.60;100977.97;4938853;28;95869;-87
2021/03/27 00:44:51;;;;;;;;;;;;;;;13.86;46.93;100977.56;4937844;28;96303;-87
2021/03/27 00:47:19;;;;;;;;;;;;;;;13.89;46.90;100975.66;4932167;28;97839;-86
2021/03/27 00:49:48;;;;;;;;;;;;;;;14.09;46.55;100976.53;4933371;28;96690;-86
2021/03/27 00:52:21;;;;;;;;;;;;;;;13.95;46.67;100978.03;4935661;28;96502;-87
2021/03/27 00:54:57;;;;;;;;;;;;;;;14.11;46.22;100972.03;4918962;28;96782;-88
2021/03/27 00:59:55;;;;;;;;;;;;;;;14.01;46.48;100963.59;4955650;22;96621;-88
2021/03/27 01:02:22;;;;;;;;;;;;;;;13.84;46.91;100956.41;4932675;28;96873;-87
2021/03/27 01:04:48;;;;;;;;;;;;;;;14.03;46.57;100958.22;4949236;28;96637;-86
2021/03/27 01:07:15;;;;;;;;;;;;;;;13.81;46.84;100955.69;4946792;28;98238;-85
2021/03/27 01:09:43;;;;;;;;;;;;;;;13.83;46.75;100946.72;4938644;28;98039;-85
2021/03/27 01:12:15;;;;;;;;;;;;;;;13.79;47.09;100946.91;4917296;28;96756;-85
2021/03/27 01:14:43;;;;;;;;;;;;;;;13.54;47.31;100947.16;4945803;28;97446;-84
2021/03/27 01:17:11;;;;;;;;;;;;;;;13.54;47.44;100937.41;4943988;28;99072;-85
2021/03/27 01:19:41;;;;;;;;;;;;;;;13.34;47.81;100944.53;4941106;28;101061;-85
2021/03/27 01:22:09;;;;;;;;;;;;;;;13.35;47.99;100925.88;4944294;28;96750;-85
2021/03/27 01:24:35;;;;;;;;;;;;;;;13.37;47.80;100923.16;4948060;28;96882;-86
2021/03/27 01:27:03;;;;;;;;;;;;;;;13.52;47.58;100922.50;4931354;28;99412;-85
2021/03/27 01:29:33;;;;;;;;;;;;;;;13.40;47.77;100915.91;4935932;28;97621;-85
2021/03/27 01:32:09;;;;;;;;;;;;;;;13.38;47.58;100919.59;4943483;28;96533;-85
2021/03/27 01:34:36;;;;;;;;;;;;;;;13.46;47.58;100915.63;4950900;28;97389;-85
2021/03/27 01:37:09;;;;;;;;;;;;;;;13.35;47.82;100903.78;4941327;28;97897;-85
2021/03/27 01:39:40;;;;;;;;;;;;;;;13.46;47.62;100907.69;4953723;28;97805;-85
2021/03/27 01:42:11;;;;;;;;;;;;;;;13.40;47.58;100905.28;4942739;28;96544;-86
2021/03/27 01:44:47;;;;;;;;;;;;;;;13.56;47.35;100900.19;4954847;28;96188;-86
2021/03/27 01:47:16;;;;;;;;;;;;;;;13.43;47.62;100897.22;4931168;28;98013;-86
2021/03/27 01:50:03;;;;;;;;;;;;;;;13.30;47.90;100887.22;4931475;28;97929;-85
2021/03/27 01:52:40;;;;;;;;;;;;;;;13.35;47.68;100887.84;4950306;28;96657;-85
2021/03/27 01:55:17;;;;;;;;;;;;;;;13.12;48.23;100884.44;4961185;28;95930;-85
2021/03/27 01:57:47;;;;;;;;;;;;;;;13.22;47.89;100876.94;4927071;28;97593;-86
2021/03/27 02:00:16;;;;;;;;;;;;;;;13.25;47.93;100875.94;4947251;28;97535;-86
2021/03/27 02:02:44;;;;;;;;;;;;;;;13.25;47.73;100875.94;4940835;28;96693;-85
2021/03/27 02:05:13;;;;;;;;;;;;;;;13.27;48.00;100869.63;4933393;28;97003;-85
2021/03/27 02:07:44;;;;;;;;;;;;;;;13.23;47.79;100867.19;4945614;28;100389;-85
2021/03/27 02:10:13;;;;;;;;;;;;;;;13.19;47.98;100870.91;4947348;28;98809;-86
2021/03/27 02:12:49;;;;;;;;;;;;;;;12.91;48.60;100860.59;4948657;28;96637;-86
2021/03/27 02:15:18;;;;;;;;;;;;;;;13.13;48.13;100867.56;4951174;28;96557;-86
2021/03/27 02:17:50;;;;;;;;;;;;;;;13.21;47.84;100867.25;4953565;28;97032;-86
2021/03/27 02:20:31;;;;;;;;;;;;;;;13.37;47.63;100860.34;4959146;28;97553;-86
2021/03/27 02:23:06;;;;;;;;;;;;;;;13.04;48.31;100867.97;4954120;28;96342;-87
2021/03/27 02:25:58;;;;;;;;;;;;;;;13.18;48.06;100871.84;4937586;28;96650;-86
2021/03/27 02:28:33;;;;;;;;;;;;;;;13.32;47.60;100869.44;4950344;28;96751;-86
2021/03/27 02:31:06;;;;;;;;;;;;;;;13.12;48.21;100867.63;4939087;28;99398;-84
2021/03/27 02:33:36;;;;;;;;;;;;;;;13.31;47.52;100854.44;4945042;28;96819;-86
2021/03/27 02:36:14;;;;;;;;;;;;;;;13.24;47.81;100861.81;4940720;28;96839;-83
2021/03/27 02:38:50;;;;;;;;;;;;;;;13.18;47.79;100854.13;4925959;28;98940;-83
2021/03/27 02:41:26;;;;;;;;;;;;;;;13.23;47.64;100852.13;4926210;28;96934;-82
2021/03/27 02:43:55;;;;;;;;;;;;;;;13.16;47.85;100855.97;4934989;28;97392;-85
2021/03/27 02:46:28;;;;;;;;;;;;;;;13.08;47.97;100853.63;4943338;28;96785;-85
2021/03/27 02:48:56;;;;;;;;;;;;;;;13.09;48.10;100858.00;4940726;28;100021;-86
2021/03/27 02:51:26;;;;;;;;;;;;;;;12.89;48.56;100855.34;4942215;28;100586;-86
2021/03/27 02:54:09;;;;;;;;;;;;;;;12.94;48.30;100853.34;4941936;28;96728;-86
2021/03/27 02:56:38;;;;;;;;;;;;;;;13.00;48.22;100855.75;4943093;28;96896;-86
2021/03/27 02:59:18;;;;;;;;;;;;;;;13.16;47.73;100855.97;4942118;28;101599;-86
2021/03/27 03:01:49;;;;;;;;;;;;;;;13.18;47.73;100859.44;4945897;28;97843;-84
2021/03/27 03:04:29;;;;;;;;;;;;;;;13.13;47.54;100849.00;4948258;28;96624;-85
2021/03/27 03:06:56;;;;;;;;;;;;;;;13.28;47.45;100839.50;4932654;28;96771;-84
2021/03/27 03:09:26;;;;;;;;;;;;;;;13.28;47.38;100844.81;4933694;28;99401;-87
2021/03/27 03:12:04;;;;;;;;;;;;;;;13.31;47.14;100841.16;4920822;28;97630;-88
2021/03/27 03:14:32;;;;;;;;;;;;;;;13.28;47.19;100838.63;4931102;28;96618;-88
2021/03/27 03:17:03;;;;;;;;;;;;;;;13.50;46.78;100834.09;4942822;28;96654;-88
2021/03/27 03:19:34;;;;;;;;;;;;;;;13.37;46.87;100833.78;4940103;28;98330;-87
2021/03/27 03:22:05;;;;;;;;;;;;;;;13.42;46.72;100830.91;4945181;28;98205;-87
2021/03/27 03:24:34;;;;;;;;;;;;;;;13.37;47.00;100828.47;4940437;28;96778;-85
2021/03/27 03:27:05;;;;;;;;;;;;;;;13.71;46.16;100826.94;4939552;28;96613;-86
2021/03/27 03:29:38;;;;;;;;;;;;;;;13.51;46.64;100825.19;4942626;28;100596;-86
2021/03/27 03:32:09;;;;;;;;;;;;;;;13.74;46.22;100832.94;4941676;28;98520;-87
2021/03/27 03:34:39;;;;;;;;;;;;;;;13.43;46.65;100830.84;4955957;28;97161;-85
2021/03/27 03:37:09;;;;;;;;;;;;;;;13.74;46.21;100827.63;4951080;28;96983;-87
2021/03/27 03:39:53;;;;;;;;;;;;;;;13.64;46.26;100821.03;4937395;28;99588;-87
2021/03/27 03:42:40;;;;;;;;;;;;;;;13.68;46.07;100819.94;4933203;28;96802;-86
2021/03/27 03:45:10;;;;;;;;;;;;;;;13.55;46.24;100827.63;4942522;28;96612;-86
2021/03/27 03:47:47;;;;;;;;;;;;;;;13.60;46.08;100819.44;4954041;28;96492;-85
2021/03/27 03:50:16;;;;;;;;;;;;;;;13.52;46.24;100822.44;4954620;28;96647;-86
2021/03/27 03:53:01;;;;;;;;;;;;;;;13.43;46.52;100817.59;4937790;28;101080;-85
2021/03/27 03:55:41;;;;;;;;;;;;;;;13.52;46.28;100809.19;4938320;28;96844;-85
2021/03/27 03:58:16;;;;;;;;;;;;;;;13.71;45.84;100806.53;4934384;28;96750;-85
2021/03/27 04:00:48;;;;;;;;;;;;;;;13.66;45.94;100802.34;4941052;28;100258;-85
2021/03/27 04:03:19;;;;;;;;;;;;;;;13.57;46.33;100798.38;4921242;28;98797;-85
2021/03/27 04:05:51;;;;;;;;;;;;;;;13.64;45.95;100793.63;4932385;28;97544;-85
2021/03/27 04:08:20;;;;;;;;;;;;;;;13.79;45.59;100788.41;4945219;28;96814;-86
2021/03/27 04:10:47;;;;;;;;;;;;;;;13.75;45.46;100786.84;4944321;28;98423;-85
2021/03/27 04:13:19;;;;;;;;;;;;;;;13.57;45.76;100788.59;4941128;28;97761;-86
2021/03/27 04:15:49;;;;;;;;;;;;;;;13.69;45.74;100791.59;4951603;28;96594;-84
2021/03/27 04:18:24;;;;;;;;;;;;;;;13.75;45.67;100791.31;4957072;28;96427;-85
2021/03/27 04:20:53;;;;;;;;;;;;;;;13.62;45.83;100801.66;4951678;28;101077;-85
2021/03/27 04:23:22;;;;;;;;;;;;;;;13.83;45.57;100816.56;4953625;28;97685;-85
2021/03/27 04:25:55;;;;;;;;;;;;;;;13.63;45.79;100807.81;4931798;28;96983;-86
2021/03/27 04:28:31;;;;;;;;;;;;;;;13.62;45.80;100820.25;4945165;28;96815;-86
2021/03/27 04:31:02;;;;;;;;;;;;;;;13.53;46.08;100824.19;4931219;28;99223;-87
2021/03/27 04:33:37;;;;;;;;;;;;;;;13.65;45.80;100820.13;4943318;28;96854;-87
2021/03/27 04:36:06;;;;;;;;;;;;;;;13.84;45.30;100809.47;4939485;28;96686;-87
2021/03/27 04:38:36;;;;;;;;;;;;;;;13.74;45.50;100814.34;4932985;28;97581;-87
2021/03/27 04:41:11;;;;;;;;;;;;;;;13.66;45.60;100819.16;4929151;28;98368;-84
2021/03/27 04:43:40;;;;;;;;;;;;;;;13.56;45.97;100808.13;4941649;28;98094;-86
2021/03/27 04:46:12;;;;;;;;;;;;;;;13.48;45.86;100814.72;4949211;28;97319;-85
2021/03/27 04:48:42;;;;;;;;;;;;;;;13.61;45.78;100804.38;4944743;28;96843;-85
2021/03/27 04:51:26;;;;;;;;;;;;;;;13.41;46.00;100803.50;4947970;28;100026;-85
2021/03/27 04:53:56;;;;;;;;;;;;;;;13.44;45.96;100805.19;4950638;28;99908;-85
2021/03/27 04:56:31;;;;;;;;;;;;;;;13.31;46.36;100811.97;4949743;28;97022;-84
2021/03/27 04:58:59;;;;;;;;;;;;;;;13.28;46.42;100805.00;4936568;28;96898;-85
2021/03/27 05:01:38;;;;;;;;;;;;;;;13.27;46.38;100799.75;4939121;28;98370;-85
2021/03/27 05:04:10;;;;;;;;;;;;;;;13.65;45.69;100804.19;4926288;28;98106;-85
2021/03/27 05:06:39;;;;;;;;;;;;;;;13.55;45.73;100798.44;4928425;28;97713;-85
2021/03/27 05:09:24;;;;;;;;;;;;;;;13.65;45.33;100793.56;4941889;28;96888;-85
2021/03/27 05:11:54;;;;;;;;;;;;;;;13.69;45.47;100797.78;4953652;28;98082;-84
2021/03/27 05:14:36;;;;;;;;;;;;;;;13.87;45.25;100798.69;4942043;28;97691;-85
2021/03/27 05:17:05;;;;;;;;;;;;;;;13.71;45.30;100800.38;4939656;28;96094;-84
2021/03/27 05:19:42;;;;;;;;;;;;;;;13.66;45.29;100784.63;4955689;28;96768;-84
2021/03/27 05:22:26;;;;;;;;;;;;;;;13.84;45.07;100777.59;4944572;28;100257;-84
2021/03/27 05:25:11;;;;;;;;;;;;;;;13.75;45.10;100781.56;4943195;28;97534;-83
2021/03/27 05:27:44;;;;;;;;;;;;;;;13.84;45.03;100781.13;4919101;28;96748;-84
2021/03/27 05:30:21;;;;;;;;;;;;;;;13.91;44.87;100787.81;4935062;28;96931;-83
2021/03/27 05:32:57;;;;;;;;;;;;;;;13.84;45.03;100786.44;4945012;28;99726;-84
2021/03/27 05:35:29;;;;;;;;;;;;;;;14.03;44.72;100788.19;4942177;28;100490;-85
2021/03/27 05:38:07;;;;;;;;;;;;;;;14.05;44.60;100787.16;4947354;28;96551;-85
2021/03/27 05:40:51;;;;;;;;;;;;;;;14.14;44.42;100783.19;4948354;28;96688;-85
2021/03/27 05:43:32;;;;;;;;;;;;;;;14.30;43.94;100782.38;4944185;28;100274;-85
2021/03/27 05:46:20;;;;;;;;;;;;;;;14.11;44.22;100784.19;4927906;28;98027;-84
2021/03/27 05:49:04;;;;;;;;;;;;;;;14.37;43.77;100790.91;4939189;28;96926;-86
2021/03/27 05:51:48;;;;;;;;;;;;;;;14.32;43.86;100782.28;4944506;28;96801;-86
2021/03/27 05:54:39;;;;;;;;;;;;;;;14.24;44.03;100784.47;4937971;28;99516;-86
2021/03/27 05:57:23;;;;;;;;;;;;;;;14.19;44.27;100781.16;4925868;28;101350;-87
2021/03/27 05:59:56;;;;;;;;;;;;;;;14.41;43.44;100781.00;4930842;28;96826;-85
2021/03/27 06:02:36;;;;;;;;;;;;;;;14.45;43.53;100775.44;4936061;28;96806;-87
2021/03/27 06:05:24;;;;;;;;;;;;;;;14.46;43.41;100771.84;4943031;28;100935;-87
2021/03/27 06:08:06;;;;;;;;;;;;;;;14.76;43.12;100764.09;4938774;28;99074;-87
2021/03/27 06:10:56;;;;;;;;;;;;;;;14.89;42.53;100762.50;4940379;28;96706;-87
2021/03/27 06:13:27;;;;;;;;;;;;;;;14.63;43.26;100761.22;4939084;28;96696;-87
2021/03/27 06:16:14;;;;;;;;;;;;;;;14.72;42.96;100755.41;4943605;28;97898;-88
2021/03/27 06:19:13;;;;;;;;;;;;;;;14.66;43.03;100752.19;4950980;28;98740;-88
2021/03/27 06:21:46;;;;;;;;;;;;;;;14.53;43.45;100764.41;4874946;28;96809;-86
2021/03/27 06:24:34;;;;;;;;;;;;;;;14.61;42.96;100760.44;4913036;28;96901;-88
2021/03/27 06:27:10;;;;;;;;;;;;;;;14.73;42.93;100754.47;4943253;28;98186;-87
2021/03/27 06:29:52;;;;;;;;;;;;;;;14.88;42.63;100752.81;4929162;28;97951;-87
2021/03/27 06:32:50;;;;;;;;;;;;;;;15.13;42.21;100755.00;4944687;28;96722;-84
2021/03/27 06:35:24;;;;;;;;;;;;;;;15.01;42.55;100755.66;4939120;28;97424;-83
2021/03/27 06:38:04;;;;;;;;;;;;;;;15.40;42.03;100753.50;4928958;28;99355;-83
2021/03/27 06:40:43;;;;;;;;;;;;;;;15.21;42.19;100752.78;4932983;28;98096;-85
2021/03/27 06:43:27;;;;;;;;;;;;;;;15.62;41.26;100741.69;4931527;28;96896;-85
2021/03/27 06:46:03;;;;;;;;;;;;;;;15.73;41.13;100756.09;4926684;28;96954;-83
2021/03/27 06:48:49;;;;;;;;;;;;;;;15.67;41.01;100740.47;4929121;28;96715;-84
2021/03/27 06:51:30;;;;;;;;;;;;;;;15.42;41.70;100748.09;4928781;28;99463;-86
2021/03/27 06:54:13;;;;;;;;;;;;;;;15.81;40.85;100742.38;4945055;28;96719;-85
2021/03/27 06:56:42;;;;;;;;;;;;;;;15.66;41.21;100748.53;4934065;28;96775;-87
2021/03/27 06:59:27;;;;;;;;;;;;;;;15.47;41.64;100740.69;4937850;28;98328;-87
2021/03/27 07:02:23;;;;;;;;;;;;;;;15.55;41.48;100735.84;4935173;28;99134;-87
2021/03/27 07:05:04;;;;;;;;;;;;;;;16.05;40.75;100743.59;4936733;28;96586;-86
2021/03/27 07:07:49;;;;;;;;;;;;;;;15.50;41.72;100749.38;4934957;28;96947;-86
2021/03/27 07:10:37;;;;;;;;;;;;;;;15.65;41.30;100758.34;4938091;28;100435;-86
2021/03/27 07:13:17;;;;;;;;;;;;;;;15.35;41.90;100795.50;4927280;28;98823;-87
2021/03/27 07:16:00;;;;;;;;;;;;;;;15.35;42.43;100813.28;4925470;28;96725;-85
2021/03/27 07:18:44;;;;;;;;;;;;;;;14.89;45.24;100830.81;4934998;28;96657;-86
2021/03/27 07:21:29;;;;;;;;;;;;;;;14.74;46.75;100843.97;4925154;28;98041;-86
2021/03/27 07:24:07;;;;;;;;;;;;;;;14.49;48.83;100843.47;4908828;28;99088;-86
2021/03/27 07:26:48;;;;;;;;;;;;;;;14.09;51.30;100844.53;4938564;28;97532;-86
2021/03/27 07:29:39;;;;;;;;;;;;;;;13.98;52.46;100847.69;4933484;28;96726;-85
2021/03/27 07:32:16;;;;;;;;;;;;;;;13.37;55.05;100856.81;4941983;28;97315;-86
2021/03/27 07:34:56;;;;;;;;;;;;;;;13.66;55.24;100853.66;4939168;28;96854;-86
2021/03/27 07:37:39;;;;;;;;;;;;;;;13.73;55.41;100848.94;4943080;28;96485;-85
2021/03/27 07:40:18;;;;;;;;;;;;;;;13.87;55.16;100834.06;4944540;28;97334;-85
2021/03/27 07:42:54;;;;;;;;;;;;;;;14.13;54.82;100834.63;4926311;28;99948;-86
2021/03/27 07:45:30;;;;;;;;;;;;;;;14.43;54.18;100822.53;4935826;28;97790;-86
2021/03/27 07:48:07;;;;;;;;;;;;;;;14.28;54.25;100834.75;4943106;28;96865;-86
2021/03/27 07:50:46;;;;;;;;;;;;;;;14.49;54.15;100837.31;4945665;28;96808;-86
2021/03/27 07:53:27;;;;;;;;;;;;;;;14.24;55.05;100842.94;4943734;28;100819;-86
2021/03/27 07:56:11;;;;;;;;;;;;;;;13.84;56.36;100882.06;4907861;28;99247;-86
2021/03/27 07:58:57;;;;;;;;;;;;;;;13.42;58.03;100903.44;4937188;28;96692;-85
2021/03/27 08:01:33;;;;;;;;;;;;;;;13.28;59.18;100912.94;4945508;28;96729;-85
2021/03/27 08:04:28;;;;;;;;;;;;;;;13.56;58.40;100926.72;4940660;28;100499;-84
2021/03/27 08:06:58;;;;;;;;;;;;;;;13.28;58.92;100950.09;4932278;28;100873;-85
2021/03/27 08:09:37;;;;;;;;;;;;;;;13.14;58.47;100969.25;4938038;28;96890;-85
2021/03/27 08:12:18;;;;;;;;;;;;;;;12.63;56.98;100959.00;4940939;28;98085;-84
2021/03/27 08:15:14;;;;;;;;;;;;;;;12.26;56.70;100970.22;4935672;28;98847;-85
2021/03/27 08:20:59;;;;;;;;;;;;;;;12.16;55.39;101001.47;4926052;28;96870;-87
2021/03/27 08:23:38;;;;;;;;;;;;;;;12.47;54.27;101002.97;4933134;28;96702;-85
2021/03/27 08:26:18;;;;;;;;;;;;;;;11.29;56.33;101016.94;4936826;28;98231;-87
2021/03/27 08:29:06;;;;;;;;;;;;;;;11.34;56.94;101022.97;4930755;28;101808;-86
2021/03/27 08:31:47;;;;;;;;;;;;;;;11.70;55.48;101020.81;4912401;28;97573;-85
2021/03/27 08:34:30;;;;;;;;;;;;;;;11.59;54.72;101050.31;4946426;28;96916;-86
2021/03/27 08:37:08;;;;;;;;;;;;;;;12.02;53.98;101071.75;4931278;28;97966;-84
2021/03/27 08:39:49;;;;;;;;;;;;;;;11.57;53.89;101072.44;4938839;28;99742;-87
2021/03/27 08:42:44;;;;;;;;;;;;;;;11.25;55.90;101088.53;4940509;28;97043;-88
2021/03/27 08:45:18;;;;;;;;;;;;;;;11.52;54.87;101107.00;4936231;28;97331;-84
2021/03/27 08:48:00;;;;;;;;;;;;;;;11.58;55.39;101130.63;4939471;28;99870;-84
2021/03/27 08:50:45;;;;;;;;;;;;;;;12.13;54.15;101131.41;4940572;28;101203;-80
2021/03/27 08:53:21;;;;;;;;;;;;;;;11.72;54.83;101116.06;4941286;28;98854;-86
2021/03/27 08:56:02;;;;;;;;;;;;;;;11.06;56.19;101134.09;4945866;28;96704;-85
2021/03/27 08:58:53;;;;;;;;;;;;;;;11.26;56.50;101138.75;4939701;28;96854;-86
2021/03/27 09:01:35;;;;;;;;;;;;;;;11.41;55.95;101142.69;4943230;28;100715;-87
2021/03/27 09:04:16;;;;;;;;;;;;;;;11.92;53.64;101169.22;4920630;28;97103;-87
2021/03/27 09:06:53;;;;;;;;;;;;;;;12.11;52.78;101170.31;4922484;28;96860;-86
2021/03/27 09:09:27;;;;;;;;;;;;;;;11.78;53.27;101171.47;4939017;28;99370;-86
2021/03/27 09:12:10;;;;;;;;;;;;;;;12.37;52.48;101180.00;4949696;28;96975;-86
2021/03/27 09:14:54;;;;;;;;;;;;;;;11.77;53.07;101191.78;4947859;28;97440;-86
2021/03/27 09:17:32;;;;;;;;;;;;;;;11.82;52.82;101196.91;4955893;28;96943;-86
2021/03/27 09:20:25;;;;;;;;;;;;;;;11.72;53.13;101199.00;4958824;28;100025;-85
2021/03/27 09:22:57;;;;;;;;;;;;;;;12.04;53.17;101205.88;4951816;28;97912;-84
2021/03/27 09:25:32;;;;;;;;;;;;;;;11.95;53.25;101203.53;4955794;28;96139;-82
2021/03/27 09:28:07;;;;;;;;;;;;;;;12.06;53.87;101200.53;4958680;28;96081;-85
2021/03/27 09:30:37;;;;;;;;;;;;;;;12.22;52.95;101220.28;4956032;28;98783;-83
2021/03/27 09:33:21;;;;;;;;;;;;;;;12.67;51.95;101212.47;4933240;28;97865;-84
2021/03/27 09:35:56;;;;;;;;;;;;;;;12.25;52.76;101226.34;4951647;28;96645;-85
2021/03/27 09:38:38;;;;;;;;;;;;;;;12.73;51.45;101225.53;4951288;28;96170;-85
2021/03/27 09:41:23;;;;;;;;;;;;;;;12.47;52.15;101228.25;4951147;28;98775;-85
2021/03/27 09:44:09;;;;;;;;;;;;;;;12.83;51.58;101234.84;4945632;28;100371;-86
2021/03/27 09:46:42;;;;;;;;;;;;;;;12.71;51.14;101233.53;4951776;28;96704;-86
2021/03/27 09:52:22;;;;;;;;;;;;;;;13.35;50.50;101238.22;4948634;28;98794;-88
2021/03/27 09:54:56;;;;;;;;;;;;;;;13.91;48.52;101249.22;4951983;28;99035;-89
2021/03/27 09:57:26;;;;;;;;;;;;;;;13.84;48.86;101253.91;4953235;28;96978;-89
2021/03/27 10:00:04;;;;;;;;;;;;;;;13.26;50.33;101259.81;4950726;28;96687;-82
2021/03/27 10:02:35;;;;;;;;;;;;;;;13.11;50.18;101258.56;4956780;23;99394;-87
2021/03/27 10:08:24;;;;;;;;;;;;;;;12.78;51.39;101253.59;4949192;28;96692;-91
2021/03/27 10:11:04;;;;;;;;;;;;;;;12.56;51.77;101267.66;4949395;28;96541;-89
2021/03/27 10:13:49;;;;;;;;;;;;;;;11.97;53.33;101258.19;4950989;28;99502;-88
2021/03/27 10:18:55;;;;;;;;;;;;;;;12.27;51.94;101272.19;5247356;23;100076;-89
2021/03/27 10:21:27;;;;;;;;;;;;;;;12.14;52.85;101277.97;4953146;28;96540;-94
2021/03/27 10:26:59;;;;;;;;;;;;;;;13.43;49.89;101274.16;4929815;28;96608;-92
2021/03/27 10:35:41;;;;;;;;;;;;;;;13.79;49.10;101277.13;4944791;28;97075;-89
2021/03/27 10:38:12;;;;;;;;;;;;;;;13.68;48.14;101275.84;4948868;28;96851;-84
2021/03/27 10:40:44;;;;;;;;;;;;;;;14.41;47.39;101275.50;4964811;28;96011;-89
2021/03/27 10:43:42;;;;;;;;;;;;;;;15.27;45.25;101282.25;4957434;28;96433;-86
2021/03/27 10:49:05;;;;;;;;;;;;;;;15.35;43.81;101295.19;5335524;23;98645;-90
2021/03/27 10:51:40;;;;;;;;;;;;;;;13.77;46.85;101347.19;4939374;28;96689;-90
2021/03/27 10:54:30;;;;;;;;;;;;;;;12.14;52.55;101344.19;4949171;28;96632;-91
2021/03/27 10:57:04;;;;;;;;;;;;;;;11.64;54.97;101343.09;4932514;28;96851;-91
2021/03/27 10:59:37;;;;;;;;;;;;;;;12.32;52.86;101336.50;4956866;28;99975;-91
2021/03/27 11:02:21;;;;;;;;;;;;;;;13.14;50.10;101338.94;4940543;28;96294;-90
2021/03/27 11:05:19;;;;;;;;;;;;;;;12.55;51.07;101334.84;4989582;23;97812;-85
2021/03/27 11:08:21;;;;;;;;;;;;;;;13.69;50.46;101349.28;4957943;28;99850;-86
2021/03/27 11:20:23;;;;;;;;;;;;;;;13.26;49.53;101347.41;4936117;28;99012;-83
2021/03/27 11:23:06;;;;;;;;;;;;;;;13.18;49.52;101352.09;4946453;28;98809;-85
2021/03/27 11:25:56;;;;;;;;;;;;;;;13.50;48.91;101355.31;4939802;28;96027;-87
2021/03/27 11:28:27;;;;;;;;;;;;;;;13.65;47.99;101359.16;4939168;28;95979;-86
2021/03/27 11:31:11;;;;;;;;;;;;;;;12.94;49.69;101359.13;4946453;28;97925;-87
2021/03/27 11:36:40;;;;;;;;;;;;;;;13.39;48.00;101362.78;4940609;28;96713;-86
2021/03/27 11:39:14;;;;;;;;;;;;;;;13.70;47.55;101359.84;4944604;28;96603;-89
2021/03/27 11:41:42;;;;;;;;;;;;;;;13.95;45.73;101357.97;4935919;28;98919;-87
2021/03/27 11:47:15;;;;;;;;;;;;;;;14.24;43.49;101364.75;4929944;28;96751;-88
2021/03/27 11:52:28;;;;;;;;;;;;;;;14.13;42.06;101350.16;4938154;28;99434;-90
2021/03/27 11:54:59;;;;;;;;;;;;;;;15.04;39.57;101348.94;4947837;28;97686;-90
2021/03/27 11:57:33;;;;;;;;;;;;;;;14.74;40.20;101343.19;4935822;28;96888;-90
2021/03/27 12:02:59;;;;;;;;;;;;;;;15.17;39.59;101355.44;4937613;28;96569;-88
2021/03/27 12:05:32;;;;;;;;;;;;;;;14.47;38.09;101350.53;4944837;28;98181;-89
2021/03/27 12:08:05;;;;;;;;;;;;;;;14.69;37.61;101342.53;4937857;28;96754;-88
2021/03/27 12:10:35;;;;;;;;;;;;;;;14.59;36.36;101347.34;4934695;28;96887;-87
2021/03/27 12:13:10;;;;;;;;;;;;;;;14.28;36.36;101344.22;4946529;28;98229;-88
2021/03/27 12:15:43;;;;;;;;;;;;;;;14.44;36.74;101339.19;4923703;28;96960;-87
2021/03/27 12:18:14;;;;;;;;;;;;;;;14.35;36.52;101343.03;4944292;28;96811;-89
2021/03/27 12:20:46;;;;;;;;;;;;;;;14.15;36.33;101322.59;4945210;28;96711;-86
2021/03/27 12:23:18;;;;;;;;;;;;;;;14.34;37.15;101343.97;4937168;28;98886;-87
2021/03/27 12:25:55;;;;;;;;;;;;;;;14.23;36.97;101330.28;4941841;28;97706;-87
2021/03/27 12:28:32;;;;;;;;;;;;;;;14.74;36.19;101330.75;4946497;28;96071;-88
2021/03/27 12:31:20;;;;;;;;;;;;;;;15.24;35.62;101343.59;4958699;28;96286;-88
2021/03/27 12:36:41;;;;;;;;;;;;;;;14.82;34.81;101335.75;4936251;28;99702;-88
2021/03/27 12:39:41;;;;;;;;;;;;;;;15.46;34.38;101341.69;4951576;28;96904;-89
2021/03/27 12:42:16;;;;;;;;;;;;;;;16.11;34.29;101353.72;4954551;28;96724;-89
2021/03/27 12:45:03;;;;;;;;;;;;;;;15.40;34.09;101352.63;4947239;28;97995;-88
2021/03/27 12:47:53;;;;;;;;;;;;;;;15.59;33.13;101342.00;4939931;28;99428;-85
2021/03/27 12:50:31;;;;;;;;;;;;;;;15.00;34.03;101355.34;4947275;28;96939;-88
2021/03/27 12:53:21;;;;;;;;;;;;;;;14.99;35.00;101359.81;4939764;28;96865;-86
2021/03/27 12:55:52;;;;;;;;;;;;;;;14.61;34.20;101373.91;4954752;28;99473;-86
2021/03/27 12:58:40;;;;;;;;;;;;;;;14.00;36.04;101408.25;4930123;28;101223;-88
2021/03/27 13:01:20;;;;;;;;;;;;;;;12.25;46.50;101458.66;4936324;28;96661;-86
2021/03/27 13:04:00;;;;;;;;;;;;;;;12.10;48.42;101470.56;4955946;28;96603;-86
2021/03/27 13:06:41;;;;;;;;;;;;;;;11.42;52.26;101460.16;4933892;28;97179;-88
2021/03/27 13:09:24;;;;;;;;;;;;;;;10.88;54.24;101488.09;4933272;28;98901;-86
2021/03/27 13:15:02;;;;;;;;;;;;;;;12.13;47.80;101465.19;4943915;28;96733;-87
2021/03/27 13:17:35;;;;;;;;;;;;;;;12.66;46.84;101460.00;4937433;28;99215;-86
2021/03/27 13:22:54;;;;;;;;;;;;;;;11.96;48.42;101478.06;4938358;28;96620;-87
2021/03/27 13:25:26;;;;;;;;;;;;;;;13.62;45.58;101475.25;4944424;28;96911;-86
2021/03/27 13:27:56;;;;;;;;;;;;;;;15.11;42.90;101464.84;4949631;28;98563;-87
2021/03/27 13:30:34;;;;;;;;;;;;;;;15.84;41.24;101467.81;4938256;28;98640;-87
2021/03/27 13:33:07;;;;;;;;;;;;;;;15.39;41.85;101467.19;4950563;28;96553;-87
2021/03/27 13:35:57;;;;;;;;;;;;;;;14.73;42.24;101472.66;4944191;28;96085;-85
2021/03/27 13:38:26;;;;;;;;;;;;;;;14.13;43.14;101481.25;4945267;28;98244;-86
2021/03/27 13:41:07;;;;;;;;;;;;;;;14.45;43.08;101490.66;4938765;28;97873;-87
2021/03/27 13:43:34;;;;;;;;;;;;;;;14.52;42.58;101504.56;4935201;28;96827;-85
2021/03/27 13:46:04;;;;;;;;;;;;;;;14.23;42.86;101505.69;4947211;28;96741;-86
2021/03/27 13:48:47;;;;;;;;;;;;;;;14.77;42.07;101496.50;4946460;28;101824;-88
2021/03/27 13:51:19;;;;;;;;;;;;;;;12.62;45.14;101508.72;4949259;28;96738;-87
2021/03/27 13:53:55;;;;;;;;;;;;;;;13.26;44.97;101514.59;4944379;28;97645;-88
2021/03/27 13:56:26;;;;;;;;;;;;;;;13.41;45.01;101517.56;4939215;28;96732;-87
2021/03/27 13:59:02;;;;;;;;;;;;;;;12.93;45.56;101524.53;4945733;28;100878;-87
2021/03/27 14:01:33;;;;;;;;;;;;;;;12.93;46.26;101522.72;4932084;28;98603;-86
2021/03/27 14:04:12;;;;;;;;;;;;;;;12.70;46.58;101525.25;4948977;28;96163;-86
2021/03/27 14:06:41;;;;;;;;;;;;;;;12.52;46.74;101518.75;4950556;28;96021;-83
2021/03/27 14:09:34;;;;;;;;;;;;;;;12.45;47.00;101526.94;4950938;28;99152;-86
2021/03/27 14:12:04;;;;;;;;;;;;;;;12.20;46.96;101525.03;4943889;28;96748;-86
2021/03/27 14:14:34;;;;;;;;;;;;;;;12.40;47.48;101532.38;4950146;28;96875;-87
2021/03/27 14:17:27;;;;;;;;;;;;;;;12.17;47.28;101526.91;4950677;28;96534;-86
2021/03/27 14:20:12;;;;;;;;;;;;;;;11.82;48.90;101533.19;4951593;28;100006;-88